createdAt,value
2023-05-13T00:04:24.862Z,9.67
2023-05-13T00:09:26.765Z,9.67
2023-05-13T00:14:28.615Z,9.67
2023-05-13T00:19:31.031Z,9.68
2023-05-13T00:24:33.741Z,9.68
2023-05-13T00:29:35.484Z,9.70
2023-05-13T00:34:38.276Z,9.74
2023-05-13T00:39:40.167Z,9.71
2023-05-13T00:44:41.975Z,9.74
2023-05-13T00:49:44.335Z,9.76
2023-05-13T00:54:46.088Z,9.77
2023-05-13T00:59:47.945Z,9.78
2023-05-13T01:05:11.097Z,9.76
2023-05-13T01:10:37.941Z,9.76
2023-05-13T01:16:10.592Z,9.77
2023-05-13T01:21:12.734Z,9.77
2023-05-13T01:26:14.622Z,9.75
2023-05-13T01:31:16.771Z,9.75
2023-05-13T01:36:18.773Z,9.70
2023-05-13T01:41:21.366Z,9.69
2023-05-13T01:46:23.506Z,9.70
2023-05-13T01:51:26.095Z,9.69
2023-05-13T01:56:29.775Z,9.68
2023-05-13T02:01:32.142Z,9.65
2023-05-13T02:06:34.247Z,9.64
2023-05-13T02:11:36.333Z,9.65
2023-05-13T02:16:38.317Z,9.63
2023-05-13T02:21:43.587Z,9.64
2023-05-13T02:26:45.499Z,9.63
2023-05-13T02:31:47.887Z,9.61
2023-05-13T02:36:50.030Z,9.61
2023-05-13T02:41:52.283Z,9.61
2023-05-13T02:46:54.712Z,9.58
2023-05-13T02:51:56.772Z,9.59
2023-05-13T02:57:05.948Z,9.59
2023-05-13T03:02:11.759Z,9.59
2023-05-13T03:07:13.806Z,9.58
2023-05-13T03:12:15.866Z,9.58
2023-05-13T03:17:17.754Z,9.60
2023-05-13T03:22:20.667Z,9.60
2023-05-13T03:27:22.607Z,9.61
2023-05-13T03:32:30.950Z,9.59
2023-05-13T03:37:34.437Z,9.63
2023-05-13T03:42:36.750Z,9.63
2023-05-13T03:47:40.460Z,9.64
2023-05-13T03:52:47.534Z,9.63
2023-05-13T03:57:51.231Z,9.63
2023-05-13T04:02:57.106Z,9.67
2023-05-13T04:07:59.050Z,9.66
2023-05-13T04:13:00.830Z,9.68
2023-05-13T04:18:02.953Z,9.72
2023-05-13T04:23:05.044Z,9.75
2023-05-13T04:28:09.728Z,9.76
2023-05-13T04:33:16.753Z,9.77
2023-05-13T04:38:21.129Z,9.82
2023-05-13T04:43:24.473Z,9.85
2023-05-13T04:48:30.606Z,9.91
2023-05-13T04:53:33.378Z,9.93
2023-05-13T04:58:38.497Z,9.97
2023-05-13T05:03:40.366Z,10.02
2023-05-13T05:08:42.177Z,9.98
2023-05-13T05:13:44.147Z,10.00
2023-05-13T05:18:46.813Z,10.02
2023-05-13T05:23:50.180Z,10.04
2023-05-13T05:28:53.102Z,10.06
2023-05-13T05:33:56.450Z,10.05
2023-05-13T05:38:58.340Z,10.05
2023-05-13T05:44:06.442Z,10.10
2023-05-13T05:49:09.253Z,10.17
2023-05-13T05:54:13.873Z,10.21
2023-05-13T05:59:15.830Z,10.34
2023-05-13T06:04:20.303Z,10.45
2023-05-13T06:09:22.260Z,10.60
2023-05-13T06:14:24.700Z,10.72
2023-05-13T06:19:28.448Z,10.93
2023-05-13T06:24:30.283Z,11.01
2023-05-13T06:29:32.214Z,10.94
2023-05-13T06:34:33.987Z,10.94
2023-05-13T06:39:35.792Z,10.95
2023-05-13T06:44:37.684Z,11.13
2023-05-13T06:49:40.929Z,11.17
2023-05-13T06:54:46.480Z,11.31
2023-05-13T06:59:48.312Z,11.45
2023-05-13T07:04:50.042Z,11.52
2023-05-13T07:09:51.802Z,11.58
2023-05-13T07:14:55.493Z,11.72
2023-05-13T07:19:58.245Z,11.87
2023-05-13T07:25:00.287Z,11.98
2023-05-13T07:30:02.223Z,11.96
2023-05-13T07:35:04.604Z,11.98
2023-05-13T07:40:08.142Z,12.03
2023-05-13T07:45:10.841Z,12.47
2023-05-13T07:50:12.740Z,13.17
2023-05-13T07:55:15.674Z,12.95
2023-05-13T08:00:18.276Z,12.97
2023-05-13T08:05:20.552Z,12.96
2023-05-13T08:10:24.997Z,12.80
2023-05-13T08:15:27.570Z,12.56
2023-05-13T08:20:30.401Z,12.50
2023-05-13T08:25:32.339Z,12.31
2023-05-13T08:30:34.171Z,12.06
2023-05-13T08:35:36.009Z,11.90
2023-05-13T08:40:37.941Z,11.85
2023-05-13T08:45:40.619Z,11.76
2023-05-13T08:50:43.073Z,11.91
2023-05-13T08:55:45.383Z,12.03
2023-05-13T09:00:49.344Z,12.22
2023-05-13T09:05:52.820Z,12.53
2023-05-13T09:10:57.300Z,12.61
2023-05-13T09:15:59.218Z,12.70
2023-05-13T09:21:26.837Z,13.05
2023-05-13T09:26:31.874Z,12.79
2023-05-13T09:31:34.039Z,13.22
2023-05-13T09:36:36.058Z,14.08
2023-05-13T09:41:38.471Z,14.15
2023-05-13T09:46:43.190Z,14.01
2023-05-13T09:51:45.982Z,13.47
2023-05-13T09:56:48.824Z,13.21
2023-05-13T10:01:50.880Z,13.33
2023-05-13T10:06:53.900Z,13.75
2023-05-13T10:11:56.772Z,15.04
2023-05-13T10:16:59.319Z,15.70
2023-05-13T10:22:02.296Z,15.30
2023-05-13T10:27:06.670Z,14.97
2023-05-13T10:32:09.174Z,15.37
2023-05-13T10:37:41.024Z,16.85
2023-05-13T10:42:55.516Z,18.42
2023-05-13T10:47:58.276Z,17.96
2023-05-13T10:53:00.224Z,16.67
2023-05-13T10:58:08.858Z,15.77
2023-05-13T11:03:16.701Z,15.44
2023-05-13T11:08:45.629Z,15.01
2023-05-13T11:13:50.607Z,14.90
2023-05-13T11:18:53.181Z,14.48
2023-05-13T11:24:04.422Z,14.26
2023-05-13T11:29:06.470Z,14.55
2023-05-13T11:34:16.385Z,14.67
2023-05-13T11:39:20.129Z,14.66
2023-05-13T11:44:23.769Z,15.00
2023-05-13T11:49:45.339Z,15.15
2023-05-13T11:54:50.830Z,15.63
2023-05-13T12:00:01.996Z,15.52
2023-05-13T12:05:05.120Z,15.72
2023-05-13T12:10:07.774Z,15.49
2023-05-13T12:15:13.733Z,15.45
2023-05-13T12:20:16.654Z,15.42
2023-05-13T12:25:41.539Z,16.00
2023-05-13T12:30:53.523Z,16.61
2023-05-13T12:36:23.256Z,16.50
2023-05-13T12:41:26.739Z,17.20
2023-05-13T12:46:29.141Z,16.99
2023-05-13T12:51:31.162Z,16.85
2023-05-13T12:56:32.903Z,17.16
2023-05-13T13:01:35.541Z,16.95
2023-05-13T13:06:37.322Z,16.88
2023-05-13T13:11:39.370Z,16.72
2023-05-13T13:16:41.173Z,16.58
2023-05-13T13:21:43.083Z,16.76
2023-05-13T13:26:44.841Z,17.27
2023-05-13T13:31:47.057Z,17.01
2023-05-13T13:36:48.926Z,16.52
2023-05-13T13:41:50.683Z,16.20
2023-05-13T13:46:52.443Z,15.85
2023-05-13T13:51:54.172Z,15.53
2023-05-13T13:56:55.907Z,15.24
2023-05-13T14:01:57.724Z,15.23
2023-05-13T14:06:59.720Z,15.13
2023-05-13T14:12:01.502Z,14.89
2023-05-13T14:17:03.349Z,14.69
2023-05-13T14:22:07.316Z,14.49
2023-05-13T14:27:09.259Z,14.46
2023-05-13T14:32:11.006Z,14.30
2023-05-13T14:37:12.775Z,14.42
2023-05-13T14:42:14.493Z,14.56
2023-05-13T14:47:16.273Z,14.90
2023-05-13T14:52:18.015Z,15.57
2023-05-13T14:57:19.970Z,15.55
2023-05-13T15:02:21.788Z,15.15
2023-05-13T15:07:23.650Z,14.93
2023-05-13T15:12:26.007Z,14.78
2023-05-13T15:17:29.309Z,14.55
2023-05-13T15:22:34.357Z,14.60
2023-05-13T15:27:36.258Z,14.51
2023-05-13T15:32:47.125Z,14.14
2023-05-13T15:37:48.896Z,13.99
2023-05-13T15:42:51.024Z,13.83
2023-05-13T15:48:00.785Z,13.51
2023-05-13T15:53:02.766Z,13.31
2023-05-13T15:58:07.629Z,13.25
2023-05-13T16:03:12.353Z,13.10
2023-05-13T16:08:14.169Z,13.04
2023-05-13T16:13:17.770Z,12.98
2023-05-13T16:18:24.184Z,13.03
2023-05-13T16:23:26.052Z,13.00
2023-05-13T16:28:27.819Z,12.94
2023-05-13T16:33:30.335Z,12.84
2023-05-13T16:38:35.132Z,12.79
2023-05-13T16:43:36.842Z,12.82
2023-05-13T16:48:38.580Z,12.76
2023-05-13T16:53:40.289Z,12.74
2023-05-13T16:58:42.016Z,12.84
2023-05-13T17:03:44.136Z,12.73
2023-05-13T17:08:45.978Z,12.64
2023-05-13T17:13:48.078Z,12.56
2023-05-13T17:18:50.037Z,12.46
2023-05-13T17:23:51.941Z,12.45
2023-05-13T17:28:54.292Z,12.43
2023-05-13T17:33:56.028Z,12.46
2023-05-13T17:38:57.781Z,12.47
2023-05-13T17:43:59.570Z,12.44
2023-05-13T17:49:01.344Z,12.35
2023-05-13T17:54:03.195Z,12.28
2023-05-13T17:59:04.922Z,12.26
2023-05-13T18:04:06.652Z,12.18
2023-05-13T18:09:08.460Z,12.13
2023-05-13T18:14:10.312Z,12.05
2023-05-13T18:19:12.160Z,11.99
2023-05-13T18:24:14.264Z,11.93
2023-05-13T18:29:16.022Z,11.87
2023-05-13T18:34:17.790Z,11.82
2023-05-13T18:39:21.501Z,11.77
2023-05-13T18:44:23.503Z,11.73
2023-05-13T18:49:28.173Z,11.70
2023-05-13T18:54:29.973Z,11.67
2023-05-13T18:59:31.781Z,11.63
2023-05-13T19:04:33.775Z,11.60
2023-05-13T19:09:36.093Z,11.58
2023-05-13T19:14:37.854Z,11.58
2023-05-13T19:19:39.647Z,11.55
2023-05-13T19:24:41.396Z,11.55
2023-05-13T19:29:43.177Z,11.54
2023-05-13T19:34:45.029Z,11.47
2023-05-13T19:39:46.838Z,11.45
2023-05-13T19:44:48.674Z,11.40
2023-05-13T19:49:50.405Z,11.39
2023-05-13T19:54:52.830Z,11.37
2023-05-13T19:59:54.915Z,11.34
2023-05-13T20:04:56.664Z,11.32
2023-05-13T20:09:58.784Z,11.33
2023-05-13T20:15:01.202Z,11.30
2023-05-13T20:20:02.999Z,11.30
2023-05-13T20:25:05.143Z,11.29
2023-05-13T20:30:07.610Z,11.27
2023-05-13T20:35:10.140Z,11.24
2023-05-13T20:40:12.349Z,11.22
2023-05-13T20:45:14.258Z,11.20
2023-05-13T20:50:16.109Z,11.19
2023-05-13T20:55:18.090Z,11.18
2023-05-13T21:00:20.208Z,11.17
2023-05-13T21:05:22.406Z,11.13
2023-05-13T21:10:24.583Z,11.08
2023-05-13T21:15:26.826Z,10.98
2023-05-13T21:20:28.666Z,10.93
2023-05-13T21:25:30.441Z,10.91
2023-05-13T21:30:32.927Z,10.95
2023-05-13T21:35:34.643Z,11.00
2023-05-13T21:40:38.428Z,11.04
2023-05-13T21:45:40.234Z,11.06
2023-05-13T21:50:42.161Z,11.07
2023-05-13T21:55:44.550Z,11.09
2023-05-13T22:00:46.358Z,11.10
2023-05-13T22:05:48.034Z,11.10
2023-05-13T22:10:49.786Z,11.11
2023-05-13T22:15:51.783Z,11.15
2023-05-13T22:20:53.909Z,11.15
2023-05-13T22:25:55.690Z,11.16
2023-05-13T22:30:57.565Z,11.18
2023-05-13T22:35:59.383Z,11.20
2023-05-13T22:41:01.028Z,11.19
2023-05-13T22:46:02.907Z,11.18
2023-05-13T22:51:04.662Z,11.19
2023-05-13T22:56:07.594Z,11.17
2023-05-13T23:01:09.444Z,11.15
2023-05-13T23:06:11.672Z,11.15
2023-05-13T23:11:13.361Z,11.14
2023-05-13T23:16:15.145Z,11.13
2023-05-13T23:21:16.856Z,11.11
2023-05-13T23:26:18.591Z,11.08
2023-05-13T23:31:20.317Z,11.10
2023-05-13T23:36:22.052Z,11.09
2023-05-13T23:41:23.862Z,11.08
2023-05-13T23:46:26.230Z,11.07
2023-05-13T23:51:28.129Z,11.07
2023-05-13T23:56:29.856Z,11.02
